Time;durP1;ratioP1;P1;durP2;ratioP2;P2;SDS_P1;SDS_P2;PMS_P1;PMS_P2;Temp;Humidity;BMP_temperature;BMP_pressure;BME280_temperature;BME280_humidity;BME280_pressure;Samples;Min_cycle;Max_cycle;Signal;HPM_P1;HPM_P2
2023/05/04 00:01:45;;;;;;;34.90;24.63;;;;;;;21.09;80.00;98660.66;4752164;29;20061;-64
2023/05/04 00:04:15;;;;;;;32.75;24.33;;;;;;;21.12;80.23;98664.69;4747372;29;20055;-67
2023/05/04 00:06:45;;;;;;;34.42;23.83;;;;;;;21.10;80.19;98662.28;4738062;30;20059;-64
2023/05/04 00:09:15;;;;;;;33.20;24.23;;;;;;;20.90;80.84;98664.84;4756844;29;20093;-64
2023/05/04 00:11:44;;;;;;;30.30;23.42;;;;;;;20.91;80.89;98664.59;4751082;29;20106;-65
2023/05/04 00:14:14;;;;;;;35.67;24.33;;;;;;;20.98;80.88;98669.75;4754267;29;20063;-64
2023/05/04 00:16:43;;;;;;;30.55;23.42;;;;;;;20.86;81.46;98671.81;4752687;29;20067;-64
2023/05/04 00:19:13;;;;;;;34.70;22.48;;;;;;;20.87;81.90;98674.28;4753493;29;20202;-65
2023/05/04 00:21:42;;;;;;;34.33;23.83;;;;;;;20.66;81.83;98666.31;4750271;29;20783;-64
2023/05/04 00:24:12;;;;;;;32.38;24.25;;;;;;;20.76;82.22;98669.06;4754434;29;20079;-64
2023/05/04 00:26:44;;;;;;;34.97;24.48;;;;;;;20.71;82.31;98675.25;4750361;29;20564;-64
2023/05/04 00:29:13;;;;;;;34.72;24.00;;;;;;;20.70;82.17;98675.50;4755413;29;20554;-65
2023/05/04 00:31:43;;;;;;;38.28;24.40;;;;;;;20.83;82.33;98680.44;4745689;29;20056;-65
2023/05/04 00:34:12;;;;;;;30.90;23.13;;;;;;;20.97;81.60;98679.72;4746639;29;20857;-65
2023/05/04 00:36:42;;;;;;;35.45;24.33;;;;;;;20.94;81.48;98674.84;4743821;30;20164;-66
2023/05/04 00:39:13;;;;;;;32.67;24.00;;;;;;;20.82;81.50;98666.16;4745451;30;20055;-64
2023/05/04 00:41:44;;;;;;;38.72;25.10;;;;;;;20.93;81.59;98667.03;4744526;30;20052;-64
2023/05/04 00:44:15;;;;;;;33.20;24.65;;;;;;;21.06;81.66;98674.66;4739548;30;20072;-64
2023/05/04 00:46:45;;;;;;;39.25;24.45;;;;;;;20.90;81.30;98668.34;4734339;30;20139;-65
2023/05/04 00:49:14;;;;;;;33.90;23.77;;;;;;;20.92;81.22;98670.78;4745427;30;20052;-65
2023/05/04 00:51:46;;;;;;;38.08;23.38;;;;;;;20.89;81.81;98669.41;4745304;30;20055;-64
2023/05/04 00:54:19;;;;;;;33.50;24.45;;;;;;;20.95;81.63;98670.28;4744568;29;20428;-66
2023/05/04 00:56:49;;;;;;;34.65;24.20;;;;;;;20.79;81.56;98668.56;4744433;29;20522;-65
2023/05/04 00:59:19;;;;;;;36.78;25.35;;;;;;;20.79;81.77;98671.25;4745083;30;20058;-65
2023/05/04 01:01:48;;;;;;;33.45;24.83;;;;;;;20.85;82.01;98667.50;4738768;30;20052;-66
2023/05/04 01:04:18;;;;;;;30.65;23.67;;;;;;;21.16;81.93;98665.84;4745493;29;20056;-64
2023/05/04 01:06:56;;;;;;;35.65;25.17;;;;;;;21.04;80.86;98666.84;4743263;30;20052;-66
2023/05/04 01:09:51;;;;;;;34.15;24.30;;;;;;;20.99;81.32;98661.41;4744112;30;20109;-65
2023/05/04 01:12:41;;;;;;;34.38;24.13;;;;;;;21.07;80.94;98662.78;4752775;29;20055;-65
2023/05/04 01:15:12;;;;;;;35.38;22.80;;;;;;;21.11;80.87;98649.63;4752160;29;20050;-66
2023/05/04 01:17:42;;;;;;;30.17;22.30;;;;;;;21.27;80.67;98662.13;4754218;29;20052;-65
2023/05/04 01:20:11;;;;;;;34.10;23.65;;;;;;;21.30;80.25;98658.91;4752706;29;20142;-64
2023/05/04 01:22:40;;;;;;;30.70;21.35;;;;;;;21.39;80.00;98662.72;4751819;29;20055;-65
2023/05/04 01:25:10;;;;;;;33.33;21.95;;;;;;;21.48;79.40;98664.66;4749370;29;20052;-65
2023/05/04 01:27:49;;;;;;;30.88;20.85;;;;;;;21.43;79.34;98667.31;4750846;29;20063;-65
2023/05/04 01:30:19;;;;;;;35.35;20.77;;;;;;;21.48;79.16;98666.53;4753744;29;20063;-64
2023/05/04 01:32:51;;;;;;;27.05;20.83;;;;;;;21.57;78.65;98670.34;4753114;29;20661;-64
2023/05/04 01:35:20;;;;;;;32.78;21.27;;;;;;;21.60;78.90;98675.19;4751513;29;20527;-65
2023/05/04 01:37:50;;;;;;;28.10;21.08;;;;;;;21.71;78.04;98679.56;4752695;29;20528;-64
2023/05/04 01:40:19;;;;;;;28.35;20.52;;;;;;;21.83;77.54;98687.41;4754234;29;20060;-64
2023/05/04 01:42:49;;;;;;;27.23;20.90;;;;;;;21.92;77.38;98689.34;4751108;29;20084;-67
2023/05/04 01:45:20;;;;;;;31.05;20.58;;;;;;;22.09;76.54;98701.78;4751371;29;20059;-66
2023/05/04 01:47:49;;;;;;;29.02;20.35;;;;;;;22.19;75.63;98699.09;4751574;29;20043;-64
2023/05/04 01:50:19;;;;;;;22.48;19.75;;;;;;;22.34;75.10;98697.25;4754528;29;20079;-65
2023/05/04 01:52:49;;;;;;;26.40;19.90;;;;;;;22.24;74.84;98707.22;4746796;30;20414;-66
2023/05/04 01:55:18;;;;;;;32.65;20.48;;;;;;;22.38;74.83;98717.22;4742289;29;20052;-65
2023/05/04 01:57:48;;;;;;;25.15;19.67;;;;;;;22.48;74.89;98719.13;4742975;30;20166;-66
2023/05/04 02:00:18;;;;;;;25.63;20.13;;;;;;;22.61;74.13;98720.47;4748616;29;20052;-65
2023/05/04 02:02:47;;;;;;;29.02;21.98;;;;;;;22.58;74.39;98727.22;4753340;30;20109;-68
2023/05/04 02:05:19;;;;;;;26.48;20.20;;;;;;;22.72;74.10;98722.13;4760308;29;20090;-65
2023/05/04 02:07:48;;;;;;;26.83;19.58;;;;;;;22.93;72.88;98731.00;4759184;30;20062;-65
2023/05/04 02:10:18;;;;;;;25.92;18.73;;;;;;;23.53;71.19;98735.53;4750432;30;20151;-65
2023/05/04 02:12:47;;;;;;;24.60;17.70;;;;;;;23.84;69.61;98747.03;4751274;30;20482;-66
2023/05/04 02:15:16;;;;;;;28.73;18.35;;;;;;;23.70;70.14;98754.94;4742399;30;20056;-66
2023/05/04 02:17:46;;;;;;;26.90;18.23;;;;;;;24.14;69.22;98752.28;4742261;30;20787;-65
2023/05/04 02:20:17;;;;;;;28.05;18.58;;;;;;;24.10;67.48;98752.03;4746562;30;20052;-67
2023/05/04 02:22:47;;;;;;;23.95;18.30;;;;;;;24.44;67.51;98754.03;4752634;30;20052;-66
2023/05/04 02:25:17;;;;;;;25.55;19.23;;;;;;;24.86;65.31;98746.16;4759872;30;20167;-67
2023/05/04 02:27:47;;;;;;;22.55;17.65;;;;;;;25.09;65.10;98760.06;4760510;30;20060;-66
2023/05/04 02:30:16;;;;;;;24.48;18.40;;;;;;;25.30;64.73;98751.44;4751879;30;20056;-65
2023/05/04 02:32:45;;;;;;;26.98;19.08;;;;;;;25.66;64.80;98760.03;4750783;30;20155;-67
2023/05/04 02:35:15;;;;;;;26.73;18.42;;;;;;;25.66;63.23;98760.03;4757931;29;20744;-65
2023/05/04 02:37:44;;;;;;;25.20;18.75;;;;;;;26.18;62.45;98759.09;4764866;29;20140;-63
2023/05/04 02:40:14;;;;;;;27.60;18.45;;;;;;;26.47;60.78;98760.84;4755196;29;20084;-66
2023/05/04 02:42:44;;;;;;;26.77;18.13;;;;;;;26.41;61.36;98764.78;4755456;30;20121;-63
2023/05/04 02:45:14;;;;;;;23.38;18.40;;;;;;;26.69;59.52;98761.88;4763118;30;20055;-63
2023/05/04 02:47:43;;;;;;;27.90;17.70;;;;;;;26.70;60.02;98771.66;4753009;30;20060;-63
2023/05/04 02:50:13;;;;;;;22.88;18.15;;;;;;;26.58;59.88;98767.78;4752593;30;20079;-63
2023/05/04 02:52:42;;;;;;;25.77;19.30;;;;;;;26.95;58.30;98769.66;4755362;30;20059;-65
2023/05/04 02:55:11;;;;;;;23.73;18.45;;;;;;;26.66;61.07;98765.19;4748276;30;20055;-65
2023/05/04 02:57:41;;;;;;;22.15;17.88;;;;;;;26.79;60.86;98767.16;4746896;30;20063;-66
2023/05/04 03:00:10;;;;;;;25.85;18.77;;;;;;;26.67;60.36;98764.09;4751689;30;20081;-64
2023/05/04 03:02:40;;;;;;;27.92;19.67;;;;;;;25.99;61.37;98768.28;4754713;30;20056;-65
2023/05/04 03:05:09;;;;;;;26.92;19.33;;;;;;;26.36;61.55;98771.91;4744825;29;20059;-64
2023/05/04 03:07:39;;;;;;;26.98;19.27;;;;;;;26.44;61.07;98770.41;4740064;30;20071;-64
2023/05/04 03:10:09;;;;;;;27.60;19.15;;;;;;;26.21;62.36;98766.66;4744193;29;20060;-62
2023/05/04 03:12:38;;;;;;;29.92;21.05;;;;;;;26.01;62.50;98771.53;4750749;30;20696;-64
2023/05/04 03:15:08;;;;;;;25.73;19.92;;;;;;;26.27;62.25;98770.13;4763219;30;20062;-65
2023/05/04 03:17:37;;;;;;;23.58;20.20;;;;;;;26.09;62.65;98776.31;4762577;30;20059;-64
2023/05/04 03:20:08;;;;;;;32.33;21.90;;;;;;;26.20;62.98;98773.19;4756072;30;20060;-65
2023/05/04 03:22:37;;;;;;;29.92;20.33;;;;;;;26.25;61.44;98772.31;4753816;30;20055;-63
2023/05/04 03:25:08;;;;;;;32.72;22.45;;;;;;;26.48;62.06;98784.22;4761909;30;20120;-63
2023/05/04 03:27:37;;;;;;;31.25;20.38;;;;;;;26.56;62.83;98792.50;4761592;30;20067;-65
2023/05/04 03:30:08;;;;;;;25.88;20.02;;;;;;;26.69;61.72;98788.22;4755661;30;20099;-65
2023/05/04 03:32:38;;;;;;;27.45;19.60;;;;;;;27.02;62.17;98786.38;4752841;30;20540;-64
2023/05/04 03:35:08;;;;;;;27.75;21.50;;;;;;;26.98;61.16;98793.53;4762303;30;20063;-65
2023/05/04 03:37:37;;;;;;;27.75;21.77;;;;;;;26.65;61.98;98798.88;4763752;30;20055;-66
2023/05/04 03:40:07;;;;;;;26.88;20.70;;;;;;;26.54;61.81;98797.44;4759110;30;20075;-63
2023/05/04 03:42:37;;;;;;;26.85;20.52;;;;;;;26.66;61.11;98805.13;4756485;30;20052;-64
2023/05/04 03:45:07;;;;;;;27.00;20.77;;;;;;;26.69;61.43;98799.91;4761135;30;20097;-64
2023/05/04 03:47:36;;;;;;;28.77;20.38;;;;;;;26.54;61.40;98796.63;4762260;30;20114;-65
2023/05/04 03:50:06;;;;;;;26.60;19.67;;;;;;;27.14;58.81;98792.16;4756595;30;20075;-65
2023/05/04 03:52:36;;;;;;;24.42;19.20;;;;;;;27.24;58.37;98794.72;4752690;30;20677;-63
2023/05/04 03:55:06;;;;;;;23.38;19.17;;;;;;;26.95;59.43;98800.38;4761848;30;20062;-63
2023/05/04 03:57:36;;;;;;;26.83;19.50;;;;;;;26.95;59.03;98796.84;4729567;30;20064;-65
2023/05/04 04:00:06;;;;;;;25.13;19.70;;;;;;;26.63;59.54;98795.69;4745904;30;20129;-67
2023/05/04 04:02:41;;;;;;;26.02;18.23;;;;;;;26.91;58.96;98795.81;4749379;29;20051;-65
2023/05/04 04:05:17;;;;;;;25.02;18.05;;;;;;;27.71;56.21;98804.47;4726510;29;20668;-65
2023/05/04 04:07:49;;;;;;;24.55;17.90;;;;;;;28.03;56.01;98803.56;4751336;29;20134;-64
2023/05/04 04:10:19;;;;;;;23.70;18.38;;;;;;;28.11;55.23;98802.88;4754443;29;20052;-64
2023/05/04 04:12:49;;;;;;;23.85;18.75;;;;;;;27.97;55.33;98799.34;4752642;30;20059;-64
2023/05/04 04:15:18;;;;;;;22.60;19.15;;;;;;;27.97;56.15;98808.31;4752157;29;20125;-64
2023/05/04 04:17:48;;;;;;;25.00;18.83;;;;;;;28.06;56.74;98811.13;4753025;29;20055;-65
2023/05/04 04:20:20;;;;;;;26.42;19.48;;;;;;;28.22;56.25;98812.47;4753412;29;20044;-65
2023/05/04 04:22:49;;;;;;;20.13;17.38;;;;;;;28.71;55.86;98808.13;4757895;29;20063;-66
2023/05/04 04:25:20;;;;;;;25.20;18.02;;;;;;;29.00;53.21;98809.31;4757947;29;20489;-65
2023/05/04 04:27:50;;;;;;;28.33;18.48;;;;;;;28.59;55.04;98814.06;4750404;29;20175;-64
2023/05/04 04:30:20;;;;;;;21.40;18.02;;;;;;;29.15;53.73;98804.59;4751747;29;20044;-65
2023/05/04 04:32:50;;;;;;;24.25;17.58;;;;;;;29.45;51.59;98815.56;4752809;29;20056;-66
2023/05/04 04:35:19;;;;;;;20.85;16.45;;;;;;;29.57;50.37;98811.44;4752748;29;20052;-64
2023/05/04 04:37:49;;;;;;;18.35;16.17;;;;;;;29.43;52.63;98817.78;4754296;29;20056;-65
2023/05/04 04:40:21;;;;;;;18.85;16.08;;;;;;;29.58;50.67;98822.06;4753158;29;20130;-65
2023/05/04 04:42:51;;;;;;;20.05;15.57;;;;;;;29.59;50.78;98820.94;4749213;29;20063;-64
2023/05/04 04:45:22;;;;;;;19.05;16.02;;;;;;;30.20;47.31;98827.44;4748968;30;20055;-66
2023/05/04 04:47:51;;;;;;;21.52;15.30;;;;;;;30.33;49.62;98826.50;4745609;30;20157;-64
2023/05/04 04:50:21;;;;;;;19.08;15.95;;;;;;;30.72;48.24;98817.41;4746757;29;20085;-65
2023/05/04 04:52:51;;;;;;;24.52;15.05;;;;;;;30.34;49.45;98818.00;4752895;29;20090;-66
2023/05/04 04:55:22;;;;;;;20.80;15.13;;;;;;;30.24;49.51;98821.03;4755839;29;20044;-67
2023/05/04 04:57:53;;;;;;;22.25;14.75;;;;;;;30.32;49.24;98816.69;4760025;29;20059;-65
2023/05/04 05:00:22;;;;;;;18.17;15.10;;;;;;;30.58;48.65;98816.78;4753622;30;20102;-64
2023/05/04 05:02:53;;;;;;;18.00;15.18;;;;;;;30.61;48.21;98813.41;4751194;30;20135;-61
2023/05/04 05:05:22;;;;;;;18.20;14.60;;;;;;;30.83;46.80;98815.97;4761449;29;20063;-62
2023/05/04 05:07:52;;;;;;;16.73;13.68;;;;;;;30.73;47.12;98806.16;4752432;30;20060;-62
2023/05/04 05:10:22;;;;;;;14.20;12.70;;;;;;;30.92;47.09;98805.03;4749884;30;20086;-62
2023/05/04 05:12:51;;;;;;;18.17;12.63;;;;;;;31.00;44.95;98804.22;4759363;29;20044;-63
2023/05/04 05:15:21;;;;;;;19.60;12.70;;;;;;;30.41;48.42;98808.50;4751736;29;20373;-62
2023/05/04 05:17:50;;;;;;;16.45;11.88;;;;;;;31.00;46.43;98810.50;4750540;29;20085;-63
2023/05/04 05:20:20;;;;;;;12.43;11.13;;;;;;;30.47;45.82;98808.06;4749306;29;20519;-62
2023/05/04 05:22:50;;;;;;;16.83;11.93;;;;;;;30.26;46.02;98801.59;4751724;30;20055;-64
2023/05/04 05:25:20;;;;;;;12.43;10.15;;;;;;;30.89;43.47;98803.72;4744197;29;20048;-63
2023/05/04 05:27:51;;;;;;;11.77;10.55;;;;;;;31.22;42.84;98804.03;4749574;30;20133;-62
2023/05/04 05:30:29;;;;;;;14.85;11.35;;;;;;;31.62;42.64;98793.63;4756539;29;20070;-62
2023/05/04 05:32:59;;;;;;;16.77;10.88;;;;;;;31.57;42.36;98793.81;4757885;30;20159;-61
2023/05/04 05:35:28;;;;;;;15.27;11.10;;;;;;;30.76;42.77;98796.50;4758390;30;20132;-61
2023/05/04 05:37:57;;;;;;;12.98;10.90;;;;;;;30.61;43.95;98791.53;4753297;30;20048;-59
2023/05/04 05:40:28;;;;;;;14.18;12.27;;;;;;;30.48;44.17;98793.28;4744700;29;20063;-58
2023/05/04 05:42:57;;;;;;;13.23;11.80;;;;;;;30.58;45.38;98792.94;4735404;30;20159;-59
2023/05/04 05:45:27;;;;;;;15.00;11.80;;;;;;;30.98;45.33;98790.06;4741782;30;20080;-60
2023/05/04 05:47:57;;;;;;;13.02;10.85;;;;;;;30.84;44.14;98782.03;4749306;30;20069;-61
2023/05/04 05:50:26;;;;;;;12.82;10.40;;;;;;;30.80;45.10;98783.81;4761185;30;20052;-60
2023/05/04 05:52:56;;;;;;;16.63;12.02;;;;;;;30.62;44.69;98779.47;4757701;30;20116;-60
2023/05/04 05:55:25;;;;;;;13.77;11.38;;;;;;;30.76;44.84;98772.69;4744804;30;20397;-60
2023/05/04 05:57:55;;;;;;;12.90;11.57;;;;;;;30.94;46.46;98761.72;4743857;30;20080;-60
2023/05/04 06:00:24;;;;;;;14.98;10.50;;;;;;;31.34;43.73;98765.03;4742934;29;20067;-61
2023/05/04 06:02:54;;;;;;;11.43;10.15;;;;;;;30.94;43.49;98758.97;4745242;29;20067;-61
2023/05/04 06:05:23;;;;;;;13.98;11.20;;;;;;;30.83;45.12;98755.00;4749130;29;20052;-64
2023/05/04 06:07:53;;;;;;;14.68;11.02;;;;;;;30.64;44.18;98752.59;4753433;29;20662;-60
2023/05/04 06:10:23;;;;;;;14.32;10.90;;;;;;;30.61;47.26;98747.78;4758438;29;20044;-60
2023/05/04 06:12:52;;;;;;;12.85;9.98;;;;;;;30.78;44.13;98739.56;4753462;29;20071;-64
2023/05/04 06:15:22;;;;;;;13.23;9.95;;;;;;;30.58;43.56;98737.50;4753694;29;20142;-60
2023/05/04 06:17:52;;;;;;;12.30;10.35;;;;;;;30.67;43.54;98738.28;4755893;29;20409;-62
2023/05/04 06:20:21;;;;;;;18.92;10.38;;;;;;;30.88;43.47;98736.47;4756543;29;20055;-61
2023/05/04 06:22:55;;;;;;;13.38;9.38;;;;;;;31.02;43.58;98731.66;4758842;29;20060;-62
2023/05/04 06:25:30;;;;;;;12.40;9.55;;;;;;;30.64;42.92;98726.06;4756604;29;20066;-60
2023/05/04 06:28:01;;;;;;;11.30;8.32;;;;;;;30.65;43.04;98718.66;4763677;29;20562;-61
2023/05/04 06:30:31;;;;;;;11.45;9.07;;;;;;;30.65;42.26;98710.44;4757379;30;20855;-61
2023/05/04 06:33:01;;;;;;;10.23;8.68;;;;;;;31.02;44.35;98712.50;4746945;30;20075;-60
2023/05/04 06:35:30;;;;;;;11.82;9.88;;;;;;;30.94;44.36;98707.00;4752045;29;20147;-62
2023/05/04 06:38:00;;;;;;;11.80;10.00;;;;;;;31.38;42.31;98705.78;4756803;29;20661;-61
2023/05/04 06:40:30;;;;;;;16.42;9.90;;;;;;;31.48;41.47;98699.91;4736494;30;20062;-61
2023/05/04 06:42:59;;;;;;;11.20;8.63;;;;;;;31.36;43.31;98697.09;4757867;30;20875;-61
2023/05/04 06:45:28;;;;;;;11.88;8.30;;;;;;;30.99;42.82;98696.69;4755330;29;20044;-61
2023/05/04 06:47:58;;;;;;;9.68;8.65;;;;;;;30.68;42.77;98687.91;4424405;29;10000566;-62
2023/05/04 06:50:28;;;;;;;9.57;8.52;;;;;;;31.26;43.58;98683.75;4751667;29;20056;-66
2023/05/04 06:53:07;;;;;;;10.68;7.90;;;;;;;31.40;42.34;98674.19;4754322;29;20061;-65
2023/05/04 06:55:38;;;;;;;11.05;8.50;;;;;;;31.05;40.59;98679.03;4710623;30;20084;-64
2023/05/04 06:58:07;;;;;;;10.65;7.75;;;;;;;31.08;40.22;98681.09;4748480;30;20385;-62
2023/05/04 07:00:37;;;;;;;11.98;7.75;;;;;;;30.84;42.69;98666.34;4754496;30;20060;-65
2023/05/04 07:03:07;;;;;;;9.55;7.68;;;;;;;31.18;43.08;98672.53;4755890;29;20130;-62
2023/05/04 07:05:37;;;;;;;9.30;7.70;;;;;;;31.11;41.92;98663.22;4757408;29;20061;-62
2023/05/04 07:08:06;;;;;;;9.68;7.93;;;;;;;31.54;43.17;98660.28;4745337;29;20382;-62
2023/05/04 07:10:36;;;;;;;11.48;7.50;;;;;;;31.07;39.46;98662.28;4754610;30;20056;-64
2023/05/04 07:13:05;;;;;;;9.27;7.68;;;;;;;31.34;38.99;98661.00;4745971;30;20048;-62
2023/05/04 07:15:35;;;;;;;8.55;6.68;;;;;;;31.45;41.31;98665.00;4742972;30;20147;-62
2023/05/04 07:18:05;;;;;;;11.27;6.90;;;;;;;31.60;42.37;98657.03;4749317;30;20056;-64
2023/05/04 07:20:35;;;;;;;9.75;7.50;;;;;;;31.57;38.31;98659.63;4744704;29;20060;-63
2023/05/04 07:23:04;;;;;;;8.27;7.47;;;;;;;31.03;40.11;98659.38;4756458;29;20150;-61
2023/05/04 07:25:34;;;;;;;11.18;7.78;;;;;;;31.33;40.82;98664.91;4753712;29;20103;-64
2023/05/04 07:28:04;;;;;;;9.65;7.93;;;;;;;31.45;39.85;98657.59;4743260;29;20060;-61
2023/05/04 07:30:33;;;;;;;13.15;7.80;;;;;;;31.26;42.35;98654.44;4752664;29;20071;-63
2023/05/04 07:33:03;;;;;;;11.18;7.38;;;;;;;31.47;41.27;98652.56;4752906;29;20052;-60
2023/05/04 07:35:32;;;;;;;13.07;7.57;;;;;;;31.32;39.26;98649.59;4749031;29;20051;-62
2023/05/04 07:38:02;;;;;;;8.95;7.05;;;;;;;30.92;43.27;98649.09;4745771;29;20056;-61
2023/05/04 07:40:31;;;;;;;7.65;6.88;;;;;;;30.80;43.22;98644.31;4747264;29;20186;-62
2023/05/04 07:43:01;;;;;;;8.73;6.57;;;;;;;30.87;43.74;98633.66;4748055;30;20060;-60
2023/05/04 07:45:30;;;;;;;8.95;7.25;;;;;;;30.61;45.85;98632.94;4749160;30;20060;-59
2023/05/04 07:48:00;;;;;;;10.10;7.25;;;;;;;30.17;46.95;98628.63;4763194;30;20063;-57
2023/05/04 07:50:30;;;;;;;19.45;7.32;;;;;;;29.96;45.89;98628.47;4762839;29;20067;-57
2023/05/04 07:52:59;;;;;;;12.65;7.60;;;;;;;29.56;45.73;98629.69;4755691;29;20890;-60
2023/05/04 07:55:29;;;;;;;8.15;6.95;;;;;;;29.32;46.98;98628.19;4757649;29;20162;-55
2023/05/04 07:57:59;;;;;;;8.57;7.50;;;;;;;29.14;48.55;98615.56;4750547;29;20534;-56
2023/05/04 08:00:28;;;;;;;8.15;7.35;;;;;;;28.86;50.59;98616.88;4757593;29;20059;-59
2023/05/04 08:02:57;;;;;;;9.68;7.55;;;;;;;28.92;50.22;98610.19;4752601;29;20218;-59
2023/05/04 08:05:27;;;;;;;8.88;7.38;;;;;;;28.74;51.01;98603.03;4738545;30;20469;-59
2023/05/04 08:07:56;;;;;;;11.23;7.78;;;;;;;28.80;49.81;98605.34;4752738;29;20823;-58
2023/05/04 08:10:27;;;;;;;12.23;7.90;;;;;;;28.81;49.64;98597.97;4755729;29;20048;-53
2023/05/04 08:12:57;;;;;;;8.85;7.93;;;;;;;28.86;49.45;98592.34;4750890;30;20055;-54
2023/05/04 08:15:26;;;;;;;14.73;9.63;;;;;;;28.52;50.09;98591.03;4743450;30;20060;-50
2023/05/04 08:17:55;;;;;;;23.35;10.20;;;;;;;28.47;50.53;98579.47;4744346;30;20064;-55
2023/05/04 08:20:25;;;;;;;12.98;9.40;;;;;;;28.49;50.68;98575.31;4754554;30;20052;-58
2023/05/04 08:22:54;;;;;;;16.05;8.73;;;;;;;28.49;50.04;98569.88;4756306;30;20117;-58
2023/05/04 08:25:24;;;;;;;10.90;8.15;;;;;;;28.71;50.50;98568.25;4755129;29;20140;-58
2023/05/04 08:27:53;;;;;;;9.98;8.45;;;;;;;28.63;50.25;98558.88;4746556;29;20144;-59
2023/05/04 08:30:24;;;;;;;10.70;8.52;;;;;;;28.67;50.00;98562.59;4749937;29;20061;-59
2023/05/04 08:32:54;;;;;;;9.88;7.88;;;;;;;28.55;49.96;98554.97;4754429;29;20150;-60
2023/05/04 08:35:26;;;;;;;11.20;8.10;;;;;;;28.66;48.90;98549.25;4748091;29;20063;-58
2023/05/04 08:37:55;;;;;;;15.15;8.88;;;;;;;28.64;49.22;98544.13;4756382;29;20640;-56
2023/05/04 08:40:25;;;;;;;16.50;8.32;;;;;;;28.66;48.88;98543.81;4752546;29;20099;-56
2023/05/04 08:42:55;;;;;;;16.40;8.38;;;;;;;28.70;48.92;98531.16;4756353;29;20515;-57
2023/05/04 08:45:25;;;;;;;9.40;7.65;;;;;;;28.66;49.13;98530.19;4750982;29;20052;-57
2023/05/04 08:47:55;;;;;;;11.45;7.47;;;;;;;28.49;50.20;98523.56;4752430;29;20871;-58
2023/05/04 08:50:25;;;;;;;10.85;7.82;;;;;;;28.48;49.64;98519.22;4752233;29;20636;-58
2023/05/04 08:52:59;;;;;;;12.57;7.60;;;;;;;28.38;49.44;98524.13;4751147;29;20062;-57
2023/05/04 08:55:32;;;;;;;11.18;7.80;;;;;;;28.48;48.68;98519.22;4751963;29;20052;-59
2023/05/04 08:58:09;;;;;;;8.93;7.22;;;;;;;28.45;49.12;98514.41;4750619;29;20782;-57
2023/05/04 09:00:40;;;;;;;9.77;8.13;;;;;;;28.44;48.09;98503.81;4751796;29;20063;-57
2023/05/04 09:03:11;;;;;;;10.05;8.13;;;;;;;28.58;50.35;98502.59;4755131;29;20772;-56
2023/05/04 09:05:45;;;;;;;8.95;7.35;;;;;;;28.65;50.08;98491.22;4753656;29;20537;-56
2023/05/04 09:08:14;;;;;;;;;;;;;;;28.59;50.73;98493.28;4753120;29;20036;-56
2023/05/04 09:10:43;;;;;;;7.70;6.82;;;;;;;28.59;49.37;98481.56;4760068;29;19956;-56
2023/05/04 09:13:13;;;;;;;10.82;7.28;;;;;;;28.58;49.95;98485.44;4757985;29;20059;-57
2023/05/04 09:15:56;;;;;;;8.20;7.20;;;;;;;28.57;50.33;98484.63;4750244;30;20146;-55
2023/05/04 09:18:43;;;;;;;10.15;7.20;;;;;;;28.57;48.33;98479.19;4753389;29;20540;-57
2023/05/04 09:21:13;;;;;;;8.20;6.75;;;;;;;28.53;48.99;98470.03;4751950;29;20063;-57
2023/05/04 09:23:50;;;;;;;9.50;7.30;;;;;;;28.39;48.70;98466.59;4754526;30;20059;-57
2023/05/04 09:26:30;;;;;;;8.43;6.57;;;;;;;28.40;49.13;98468.22;4749581;29;20075;-54
2023/05/04 09:29:13;;;;;;;12.55;7.10;;;;;;;28.36;49.62;98456.34;4749348;29;20048;-61
2023/05/04 09:31:50;;;;;;;10.95;6.78;;;;;;;28.36;49.72;98453.63;4747315;29;20086;-57
2023/05/04 09:34:21;;;;;;;7.47;6.70;;;;;;;28.07;50.58;98447.81;4747219;29;20054;-56
2023/05/04 09:37:02;;;;;;;7.65;6.40;;;;;;;28.08;51.12;98449.44;4749277;29;20051;-56
2023/05/04 09:39:31;;;;;;;8.15;6.30;;;;;;;27.98;50.52;98433.34;4743509;29;20108;-59
2023/05/04 09:42:00;;;;;;;7.95;6.65;;;;;;;27.90;50.60;98439.56;4757405;29;20116;-56
2023/05/04 09:44:30;;;;;;;7.43;6.55;;;;;;;27.85;50.22;98434.25;4742401;30;20056;-56
2023/05/04 09:46:59;;;;;;;7.00;6.30;;;;;;;27.95;49.58;98434.00;4761004;29;20055;-56
2023/05/04 09:49:36;;;;;;;8.35;6.47;;;;;;;28.02;51.12;98434.34;4758794;29;20056;-57
2023/05/04 09:52:06;;;;;;;7.95;6.65;;;;;;;28.10;50.32;98430.91;4752389;29;20078;-57
2023/05/04 09:54:37;;;;;;;10.13;6.70;;;;;;;28.01;50.68;98424.59;4759452;29;20952;-56
2023/05/04 09:57:14;;;;;;;8.00;6.18;;;;;;;28.05;50.63;98422.84;4759420;29;20043;-57
2023/05/04 09:59:44;;;;;;;9.82;7.30;;;;;;;27.93;50.34;98403.53;4757131;29;20063;-57
2023/05/04 10:02:14;;;;;;;12.25;6.35;;;;;;;27.90;50.34;98399.53;4744248;30;20064;-60
2023/05/04 10:04:51;;;;;;;12.60;6.97;;;;;;;27.75;50.38;98399.91;4753375;29;20047;-59
2023/05/04 10:07:22;;;;;;;6.90;6.20;;;;;;;27.83;49.06;98390.22;4753227;29;26469;-55
2023/05/04 10:09:52;;;;;;;8.88;6.32;;;;;;;27.87;49.90;98388.47;4751950;29;20138;-57
2023/05/04 10:12:21;;;;;;;10.10;7.18;;;;;;;27.87;50.43;98388.47;4757386;29;21032;-58
2023/05/04 10:14:51;;;;;;;6.70;6.05;;;;;;;27.86;50.03;98384.16;4758201;29;20046;-54
2023/05/04 10:17:52;;;;;;;7.88;6.00;;;;;;;27.66;50.08;98382.78;4759022;29;20065;-55
2023/05/04 10:20:38;;;;;;;7.07;6.38;;;;;;;27.52;51.03;98379.31;4757659;29;20064;-57
2023/05/04 10:23:47;;;;;;;9.35;6.00;;;;;;;27.52;50.50;98377.41;4751858;29;20051;-56
2023/05/04 10:26:26;;;;;;;10.05;6.63;;;;;;;27.56;50.28;98369.41;4753762;29;20091;-55
2023/05/04 10:29:22;;;;;;;7.38;6.55;;;;;;;27.59;49.97;98366.06;4746264;29;20413;-55
2023/05/04 10:31:52;;;;;;;10.98;5.72;;;;;;;27.66;49.66;98367.22;4744852;30;20056;-55
2023/05/04 10:34:30;;;;;;;8.48;6.47;;;;;;;27.72;49.34;98357.00;4751089;29;20105;-57
2023/05/04 10:37:00;;;;;;;7.53;6.43;;;;;;;27.72;50.34;98357.00;4746668;29;20052;-56
2023/05/04 10:39:32;;;;;;;7.55;6.00;;;;;;;27.73;49.75;98342.28;4745977;30;20138;-55
2023/05/04 10:42:05;;;;;;;10.05;6.90;;;;;;;27.74;50.15;98340.38;4756533;29;20075;-58
2023/05/04 10:44:48;;;;;;;9.68;6.60;;;;;;;27.73;49.79;98333.31;4759594;29;20056;-52
2023/05/04 10:47:31;;;;;;;8.30;6.18;;;;;;;27.63;49.44;98320.78;4746317;29;20067;-55
2023/05/04 10:50:12;;;;;;;7.57;5.95;;;;;;;27.61;49.14;98318.41;4745927;29;20052;-52
2023/05/04 10:52:52;;;;;;;7.13;6.28;;;;;;;27.66;48.98;98307.34;4750291;30;20524;-54
2023/05/04 10:55:23;;;;;;;7.13;6.22;;;;;;;27.75;48.83;98306.59;4745409;30;20145;-55
2023/05/04 10:57:56;;;;;;;10.68;6.45;;;;;;;27.78;48.79;98304.06;4746780;30;20055;-53
2023/05/04 11:00:35;;;;;;;;;;;;;;;27.78;49.79;98297.81;4750177;29;20105;-54
2023/05/04 11:03:07;;;;;;;10.10;6.18;;;;;;;27.72;50.50;98299.06;4752845;30;19936;-54
2023/05/04 11:05:45;;;;;;;7.05;5.93;;;;;;;27.54;50.42;98295.44;4747552;29;20172;-56
2023/05/04 11:08:16;;;;;;;7.32;6.07;;;;;;;27.46;50.15;98280.66;4751551;29;20059;-55
2023/05/04 11:10:47;;;;;;;12.20;6.40;;;;;;;27.49;50.35;98281.97;4757358;29;20067;-57
2023/05/04 11:13:17;;;;;;;8.48;5.93;;;;;;;27.40;50.59;98273.75;4750303;30;20060;-56
2023/05/04 11:15:48;;;;;;;11.02;6.78;;;;;;;27.51;50.72;98279.75;4745732;30;20060;-55
2023/05/04 11:18:32;;;;;;;10.43;6.70;;;;;;;27.59;50.25;98282.53;4745176;30;20056;-54
2023/05/04 11:21:02;;;;;;;7.47;6.00;;;;;;;27.64;48.93;98287.84;4752443;30;20919;-53
2023/05/04 11:23:32;;;;;;;9.05;6.05;;;;;;;27.72;49.80;98302.56;4748959;30;20075;-57
2023/05/04 11:26:06;;;;;;;8.60;6.28;;;;;;;27.72;50.76;98301.78;4745994;30;20087;-56
2023/05/04 11:28:37;;;;;;;8.48;6.18;;;;;;;27.67;50.26;98303.53;4748407;30;20052;-54
2023/05/04 11:31:20;;;;;;;7.75;6.40;;;;;;;27.63;51.02;98307.97;4753541;30;20116;-55
2023/05/04 11:33:53;;;;;;;;;;;;;;;27.59;51.83;98322.53;4740088;29;20061;-57
2023/05/04 11:36:24;;;;;;;7.80;6.32;;;;;;;27.56;51.67;98315.81;4728313;30;19931;-57
2023/05/04 11:38:56;;;;;;;12.32;6.55;;;;;;;27.56;51.12;98299.47;4746116;29;20583;-58
2023/05/04 11:41:28;;;;;;;8.00;6.27;;;;;;;27.63;50.79;98290.84;4754941;29;20051;-59
2023/05/04 11:44:00;;;;;;;11.50;6.07;;;;;;;27.68;50.39;98277.13;4748308;30;20381;-60